M/V Crosby Hustler — WDA3941 — position and weather

sailwx.info

Track history (hours):
 
Tides and Currents Weather Stations Pressure Air Temp Water Temp Dewpoint Dewpoint Depression Visibility Wind Speed Wind Dir Waves Ship Positions

M/V Crosby Hustler

Owner: CROSBY INLAND MARINE LLC, GOLDEN MEADOW, LA. More information available from US FCC via Universal Licensing System and Coast Guard Vessel Documentation Center.

Last reported at 2015-Mar-18 19:25 UTC. Time now 2015-Mar-27 22:08 UTC.
Position N 29°30' W 094°52'.
Warning: this ship's position is 9 days out of date.

Length 18 m; draft 9 m.

Type: Tug. MMSI: 366804030.

Date/timePositionNaut miles runAvg speedWind from/ knotsBaromVisibWave heightAir tempDewpointWater temp
2015-Mar-18 19:25N 29°30' W 094°52'5 6.0
2015-Mar-18 18:33N 29°34' W 094°56'6 6.4
2015-Mar-18 17:33N 29°40' W 094°59'6 6.5
2015-Mar-18 16:33N 29°45' W 095°04'2 1.9
2015-Mar-18 15:33N 29°46' W 095°05'0 0.0
2015-Mar-18 14:33N 29°46' W 095°05'0 0.0
2015-Mar-18 13:30N 29°46' W 095°05'5 3.8
2015-Mar-18 12:18N 29°44' W 095°09'1 0.1
2015-Mar-18 05:33N 29°44' W 095°08'1 0.2
2015-Mar-18 02:12N 29°44' W 095°09'2 0.9
2015-Mar-18 00:14N 29°45' W 095°11'4 6.1
2015-Mar-17 23:33N 29°45' W 095°06'4 4.5
2015-Mar-17 22:33N 29°44' W 095°01'7 6.7
2015-Mar-17 21:33N 29°38' W 094°58'7 7.3
2015-Mar-17 20:33N 29°31' W 094°53'  
Track history (hours):
 
Tides and Currents Weather Stations Pressure Air Temp Water Temp Dewpoint Dewpoint Depression Visibility Wind Speed Wind Dir Waves Ship Positions

M/V Crosby Hustler

Owner: CROSBY INLAND MARINE LLC, GOLDEN MEADOW, LA. More information available from US FCC via Universal Licensing System and Coast Guard Vessel Documentation Center.

Last reported at 2015-Mar-18 19:25 UTC. Time now 2015-Mar-27 22:08 UTC.
Position N 29°30' W 094°52'.
Warning: this ship's position is 9 days out of date.

Length 18 m; draft 9 m.

Type: Tug. MMSI: 366804030.

Date/timePositionNaut miles runAvg speedWind from/ knotsBaromVisibWave heightAir tempDewpointWater temp
2015-Mar-18 19:25N 29°30' W 094°52'5 6.0
2015-Mar-18 18:33N 29°34' W 094°56'6 6.4
2015-Mar-18 17:33N 29°40' W 094°59'6 6.5
2015-Mar-18 16:33N 29°45' W 095°04'2 1.9
2015-Mar-18 15:33N 29°46' W 095°05'0 0.0
2015-Mar-18 14:33N 29°46' W 095°05'0 0.0
2015-Mar-18 13:30N 29°46' W 095°05'5 3.8
2015-Mar-18 12:18N 29°44' W 095°09'1 0.1
2015-Mar-18 05:33N 29°44' W 095°08'1 0.2
2015-Mar-18 02:12N 29°44' W 095°09'2 0.9
2015-Mar-18 00:14N 29°45' W 095°11'4 6.1
2015-Mar-17 23:33N 29°45' W 095°06'4 4.5
2015-Mar-17 22:33N 29°44' W 095°01'7 6.7
2015-Mar-17 21:33N 29°38' W 094°58'7 7.3
2015-Mar-17 20:33N 29°31' W 094°53'  

Dump ship's entire track history